createdAt,value
2018-02-22T00:00:45.492Z,22.65
2018-02-22T00:03:13.004Z,28.10
2018-02-22T00:05:40.648Z,24.85
2018-02-22T00:08:08.905Z,24.63
2018-02-22T00:10:36.384Z,22.02
2018-02-22T00:13:04.634Z,22.02
2018-02-22T00:15:32.200Z,23.20
2018-02-22T00:17:59.767Z,26.08
2018-02-22T00:20:28.014Z,27.13
2018-02-22T00:22:55.496Z,26.10
2018-02-22T00:25:23.754Z,25.70
2018-02-22T00:27:51.335Z,27.58
2018-02-22T00:30:19.586Z,19.55
2018-02-22T00:32:47.077Z,25.02
2018-02-22T00:35:15.332Z,19.70
2018-02-22T00:37:42.809Z,22.08
2018-02-22T00:40:11.068Z,22.75
2018-02-22T00:42:38.541Z,25.58
2018-02-22T00:45:06.816Z,31.58
2018-02-22T00:47:35.064Z,25.95
2018-02-22T00:50:02.564Z,20.80
2018-02-22T00:52:30.295Z,26.42
2018-02-22T00:54:57.781Z,24.20
2018-02-22T00:57:25.272Z,25.30
2018-02-22T00:59:52.773Z,28.42
2018-02-22T01:02:21.031Z,25.35
2018-02-22T01:04:49.305Z,30.02
2018-02-22T01:07:16.882Z,26.25
2018-02-22T01:09:45.166Z,23.10
2018-02-22T01:12:13.468Z,30.08
2018-02-22T01:14:41.645Z,25.45
2018-02-22T01:17:09.150Z,21.17
2018-02-22T01:19:36.724Z,22.27
2018-02-22T01:22:04.981Z,20.85
2018-02-22T01:24:32.475Z,22.10
2018-02-22T01:27:00.821Z,33.65
2018-02-22T01:29:28.395Z,28.27
2018-02-22T01:31:56.654Z,21.40
2018-02-22T01:34:24.152Z,20.80
2018-02-22T01:36:51.691Z,23.52
2018-02-22T01:39:19.948Z,22.17
2018-02-22T01:41:47.521Z,26.10
2018-02-22T01:44:15.796Z,24.73
2018-02-22T01:46:44.051Z,26.30
2018-02-22T01:49:11.638Z,25.80
2018-02-22T01:51:39.898Z,23.87
2018-02-22T01:54:08.165Z,28.95
2018-02-22T01:56:35.647Z,27.05
2018-02-22T01:59:03.900Z,26.45
2018-02-22T02:01:31.385Z,26.90
2018-02-22T02:03:59.663Z,22.75
2018-02-22T02:06:27.931Z,24.02
2018-02-22T02:08:56.197Z,27.42
2018-02-22T02:11:24.461Z,21.12
2018-02-22T02:13:51.953Z,28.15
2018-02-22T02:16:19.494Z,26.10
2018-02-22T02:18:47.060Z,26.73
2018-02-22T02:21:15.317Z,22.37
2018-02-22T02:23:42.996Z,25.00
2018-02-22T02:26:11.271Z,23.30
2018-02-22T02:28:39.526Z,23.35
2018-02-22T02:31:07.029Z,26.20
2018-02-22T02:33:34.522Z,23.15
2018-02-22T02:36:02.023Z,24.00
2018-02-22T02:38:29.515Z,24.45
2018-02-22T02:40:57.019Z,23.83
2018-02-22T02:43:25.268Z,28.62
2018-02-22T02:45:52.766Z,24.27
2018-02-22T02:48:21.014Z,26.00
2018-02-22T02:50:48.527Z,23.45
2018-02-22T02:53:16.022Z,27.87
2018-02-22T02:55:43.516Z,28.95
2018-02-22T02:58:11.815Z,26.73
2018-02-22T03:00:39.316Z,26.20
2018-02-22T03:03:06.800Z,31.05
2018-02-22T03:05:35.142Z,21.75
2018-02-22T03:08:02.740Z,28.90
2018-02-22T03:10:30.328Z,26.30
2018-02-22T03:12:57.829Z,28.08
2018-02-22T03:15:26.104Z,25.85
2018-02-22T03:17:53.600Z,24.63
2018-02-22T03:20:21.084Z,26.83
2018-02-22T03:22:48.709Z,25.15
2018-02-22T03:25:16.973Z,29.70
2018-02-22T03:27:45.240Z,27.17
2018-02-22T03:30:13.506Z,29.90
2018-02-22T03:32:41.015Z,24.65
2018-02-22T03:35:08.495Z,30.73
2018-02-22T03:37:35.990Z,26.67
2018-02-22T03:40:04.281Z,24.00
2018-02-22T03:42:32.552Z,30.55
2018-02-22T03:45:00.066Z,24.65
2018-02-22T03:47:27.567Z,24.50
2018-02-22T03:49:55.878Z,23.90
2018-02-22T03:52:23.366Z,30.77
2018-02-22T03:54:50.865Z,25.10
2018-02-22T03:57:19.117Z,30.17
2018-02-22T03:59:46.613Z,28.83
2018-02-22T04:02:14.106Z,28.92
2018-02-22T04:04:41.776Z,34.88
2018-02-22T04:07:09.268Z,25.95
2018-02-22T04:09:37.530Z,31.92
2018-02-22T04:12:05.849Z,27.23
2018-02-22T04:14:33.348Z,29.08
2018-02-22T04:17:00.941Z,28.67
2018-02-22T04:19:29.239Z,26.42
2018-02-22T04:21:56.776Z,26.60
2018-02-22T04:24:25.033Z,26.50
2018-02-22T04:26:52.529Z,30.92
2018-02-22T04:29:20.017Z,22.13
2018-02-22T04:31:47.504Z,31.08
2018-02-22T04:34:15.000Z,26.65
2018-02-22T04:36:42.671Z,26.98
2018-02-22T04:39:10.160Z,29.77
2018-02-22T04:41:37.657Z,29.98
2018-02-22T04:44:05.922Z,33.95
2018-02-22T04:46:34.209Z,29.25
2018-02-22T04:49:02.472Z,31.65
2018-02-22T04:51:30.732Z,25.95
2018-02-22T04:53:58.317Z,32.92
2018-02-22T04:56:26.564Z,27.83
2018-02-22T04:58:54.161Z,28.38
2018-02-22T05:01:21.653Z,29.33
2018-02-22T05:03:49.154Z,29.52
2018-02-22T05:06:17.414Z,28.48
2018-02-22T05:08:44.930Z,27.15
2018-02-22T05:11:14.312Z,29.35
2018-02-22T05:13:41.818Z,48.38
2018-02-22T05:16:09.297Z,33.95
2018-02-22T05:18:36.802Z,31.45
2018-02-22T05:21:04.269Z,32.33
2018-02-22T05:23:31.765Z,32.88
2018-02-22T05:26:00.049Z,36.00
2018-02-22T05:28:28.326Z,31.80
2018-02-22T05:30:56.607Z,29.83
2018-02-22T05:33:24.836Z,31.55
2018-02-22T05:35:52.308Z,27.17
2018-02-22T05:38:19.772Z,28.45
2018-02-22T05:40:47.242Z,31.80
2018-02-22T05:43:14.794Z,28.95
2018-02-22T05:45:42.261Z,37.30
2018-02-22T05:48:09.748Z,25.23
2018-02-22T05:50:37.269Z,40.95
2018-02-22T05:53:04.725Z,37.83
2018-02-22T05:55:32.277Z,33.60
2018-02-22T05:58:01.274Z,33.13
2018-02-22T06:00:29.499Z,37.08
2018-02-22T06:02:56.990Z,33.15
2018-02-22T06:05:24.466Z,33.85
2018-02-22T06:07:51.944Z,34.75
2018-02-22T06:10:20.177Z,39.22
2018-02-22T06:12:47.702Z,37.13
2018-02-22T06:15:15.166Z,33.90
2018-02-22T06:17:42.642Z,37.72
2018-02-22T06:20:10.105Z,31.08
2018-02-22T06:22:37.603Z,30.25
2018-02-22T06:25:05.858Z,35.55
2018-02-22T06:27:33.338Z,28.52
2018-02-22T06:30:00.878Z,26.55
2018-02-22T06:32:28.343Z,34.05
2018-02-22T06:34:56.883Z,34.47
2018-02-22T06:37:24.472Z,34.65
2018-02-22T06:39:51.937Z,36.03
2018-02-22T06:42:19.392Z,40.53
2018-02-22T06:44:47.630Z,35.55
2018-02-22T06:47:15.121Z,31.58
2018-02-22T06:49:42.593Z,31.42
2018-02-22T06:52:10.823Z,33.80
2018-02-22T06:54:38.313Z,36.35
2018-02-22T06:57:06.547Z,34.45
2018-02-22T06:59:34.016Z,37.97
2018-02-22T07:02:01.481Z,40.90
2018-02-22T07:04:28.945Z,33.40
2018-02-22T07:06:56.518Z,35.65
2018-02-22T07:09:24.068Z,54.67
2018-02-22T07:11:52.302Z,38.15
2018-02-22T07:14:19.769Z,38.80
2018-02-22T07:16:47.233Z,46.78
2018-02-22T07:19:14.773Z,39.03
2018-02-22T07:21:42.284Z,37.92
2018-02-22T07:24:10.514Z,35.30
2018-02-22T07:26:37.989Z,43.08
2018-02-22T07:29:05.452Z,40.05
2018-02-22T07:31:32.931Z,46.63
2018-02-22T07:34:01.342Z,42.80
2018-02-22T07:36:28.845Z,45.05
2018-02-22T07:38:56.410Z,44.78
2018-02-22T07:41:23.980Z,38.75
2018-02-22T07:43:51.446Z,38.00
2018-02-22T07:46:19.682Z,36.60
2018-02-22T07:48:47.146Z,39.42
2018-02-22T07:51:14.673Z,33.30
2018-02-22T07:53:42.151Z,41.28
2018-02-22T07:56:09.616Z,47.38
2018-02-22T07:58:37.190Z,34.17
2018-02-22T08:01:04.737Z,44.95
2018-02-22T08:03:32.254Z,47.60
2018-02-22T08:05:59.754Z,40.45
2018-02-22T08:08:27.242Z,46.55
2018-02-22T08:10:55.696Z,43.05
2018-02-22T08:13:23.180Z,35.88
2018-02-22T08:15:51.430Z,37.17
2018-02-22T08:18:18.913Z,45.95
2018-02-22T08:20:47.141Z,44.42
2018-02-22T08:23:14.617Z,39.60
2018-02-22T08:25:42.109Z,42.92
2018-02-22T08:28:09.607Z,44.20
2018-02-22T08:30:37.086Z,39.70
2018-02-22T08:33:06.070Z,35.13
2018-02-22T08:35:33.546Z,41.13
2018-02-22T08:38:01.834Z,38.97
2018-02-22T08:40:30.076Z,37.13
2018-02-22T08:42:57.561Z,39.13
2018-02-22T08:45:25.830Z,41.85
2018-02-22T08:47:53.443Z,41.15
2018-02-22T08:50:25.976Z,38.30
2018-02-22T08:52:54.251Z,38.10
2018-02-22T08:55:23.385Z,34.53
2018-02-22T08:57:50.875Z,40.63
2018-02-22T09:00:18.362Z,48.78
2018-02-22T09:02:46.613Z,41.95
2018-02-22T09:05:14.138Z,41.13
2018-02-22T09:07:41.616Z,43.85
2018-02-22T09:10:09.095Z,39.67
2018-02-22T09:12:36.561Z,38.38
2018-02-22T09:15:05.093Z,33.95
2018-02-22T09:17:32.560Z,32.65
2018-02-22T09:20:00.056Z,34.65
2018-02-22T09:22:28.290Z,32.58
2018-02-22T09:24:55.758Z,32.95
2018-02-22T09:27:23.258Z,34.00
2018-02-22T09:29:51.515Z,35.50
2018-02-22T09:32:18.985Z,40.83
2018-02-22T09:34:47.213Z,33.25
2018-02-22T09:37:14.681Z,28.48
2018-02-22T09:39:42.257Z,25.58
2018-02-22T09:42:09.721Z,36.42
2018-02-22T09:44:37.208Z,28.30
2018-02-22T09:47:04.677Z,25.77
2018-02-22T09:49:32.146Z,25.60
2018-02-22T09:51:59.613Z,32.35
2018-02-22T09:54:27.077Z,25.40
2018-02-22T09:56:54.652Z,27.73
2018-02-22T09:59:22.101Z,19.90
2018-02-22T10:01:49.675Z,22.08
2018-02-22T10:04:17.180Z,19.73
2018-02-22T10:06:44.660Z,24.27
2018-02-22T10:09:12.121Z,24.02
2018-02-22T10:11:39.582Z,17.17
2018-02-22T10:14:07.166Z,24.25
2018-02-22T10:16:34.641Z,16.73
2018-02-22T10:19:02.914Z,18.12
2018-02-22T10:21:31.128Z,15.35
2018-02-22T10:23:58.593Z,15.98
2018-02-22T10:26:26.072Z,17.75
2018-02-22T10:28:53.532Z,17.37
2018-02-22T10:31:21.809Z,20.95
2018-02-22T10:33:49.279Z,15.50
2018-02-22T10:36:17.523Z,20.92
2018-02-22T10:38:45.067Z,20.02
2018-02-22T10:41:12.544Z,17.98
2018-02-22T10:43:40.114Z,16.87
2018-02-22T10:46:07.678Z,14.00
2018-02-22T10:48:35.918Z,18.27
2018-02-22T10:51:03.382Z,15.47
2018-02-22T10:53:30.857Z,18.13
2018-02-22T10:55:58.317Z,21.13
2018-02-22T10:58:27.312Z,15.77
2018-02-22T11:01:00.578Z,15.03
2018-02-22T11:03:28.044Z,14.87
2018-02-22T11:05:55.517Z,16.63
2018-02-22T11:08:23.002Z,12.83
2018-02-22T11:10:51.234Z,13.53
2018-02-22T11:13:18.706Z,11.27
2018-02-22T11:15:46.982Z,9.53
2018-02-22T11:18:14.597Z,13.77
2018-02-22T11:20:42.073Z,14.30
2018-02-22T11:23:09.534Z,11.87
2018-02-22T11:25:36.997Z,9.17
2018-02-22T11:28:04.465Z,12.80
2018-02-22T11:30:31.954Z,13.83
2018-02-22T11:33:00.193Z,11.00
2018-02-22T11:35:27.656Z,15.17
2018-02-22T11:37:55.113Z,16.77
2018-02-22T11:40:22.683Z,15.57
2018-02-22T11:42:50.924Z,16.57
2018-02-22T11:45:18.414Z,11.03
2018-02-22T11:47:47.641Z,13.17
2018-02-22T11:50:15.126Z,19.47
2018-02-22T11:52:42.602Z,11.97
2018-02-22T11:55:10.213Z,11.60
2018-02-22T11:57:37.843Z,14.13
2018-02-22T12:00:05.311Z,15.50
2018-02-22T12:02:33.552Z,12.70
2018-02-22T12:05:01.049Z,11.93
2018-02-22T12:07:29.364Z,9.70
2018-02-22T12:09:56.836Z,10.70
2018-02-22T12:12:24.313Z,13.43
2018-02-22T12:14:51.780Z,15.52
2018-02-22T12:17:19.334Z,13.77
2018-02-22T12:19:46.893Z,12.93
2018-02-22T12:22:14.450Z,9.75
2018-02-22T12:24:43.418Z,11.10
2018-02-22T12:27:10.904Z,13.95
2018-02-22T12:29:38.369Z,11.75
2018-02-22T12:32:05.851Z,16.80
2018-02-22T12:34:33.315Z,16.77
2018-02-22T12:37:00.791Z,13.32
2018-02-22T12:39:28.244Z,16.70
2018-02-22T12:41:55.741Z,19.40
2018-02-22T12:44:23.197Z,14.77
2018-02-22T12:46:50.676Z,15.77
2018-02-22T12:49:18.915Z,15.23
2018-02-22T12:51:46.403Z,16.30
2018-02-22T12:54:14.641Z,18.05
2018-02-22T12:56:42.125Z,18.02
2018-02-22T12:59:09.631Z,19.55
2018-02-22T13:01:37.089Z,14.70
2018-02-22T13:04:04.564Z,16.70
2018-02-22T13:06:32.122Z,16.45
2018-02-22T13:08:59.597Z,15.95
2018-02-22T13:11:27.084Z,17.35
2018-02-22T13:13:55.326Z,13.00
2018-02-22T13:16:22.781Z,14.70
2018-02-22T13:18:50.349Z,19.52
2018-02-22T13:21:17.899Z,14.85
2018-02-22T13:23:45.482Z,13.30
2018-02-22T13:26:13.714Z,16.37
2018-02-22T13:28:41.190Z,13.30
2018-02-22T13:31:08.779Z,13.88
2018-02-22T13:33:48.963Z,13.40
2018-02-22T13:36:16.424Z,16.83
2018-02-22T13:38:55.909Z,15.18
2018-02-22T13:41:23.379Z,16.87
2018-02-22T13:44:02.905Z,22.35
2018-02-22T13:46:30.375Z,36.30
2018-02-22T13:49:09.755Z,22.85
2018-02-22T13:51:37.262Z,17.52
2018-02-22T13:54:04.835Z,21.62
2018-02-22T13:56:44.030Z,17.60
2018-02-22T13:59:11.569Z,18.40
2018-02-22T14:01:51.711Z,22.10
2018-02-22T14:04:19.177Z,16.60
2018-02-22T14:06:46.651Z,15.05
2018-02-22T14:09:14.188Z,18.95
2018-02-22T14:11:41.719Z,17.27
2018-02-22T14:14:09.961Z,15.70
2018-02-22T14:16:37.548Z,17.85
2018-02-22T14:19:05.861Z,18.02
2018-02-22T14:21:33.334Z,19.20
2018-02-22T14:24:00.812Z,13.60
2018-02-22T14:26:28.298Z,15.35
2018-02-22T14:28:56.550Z,16.95
2018-02-22T14:31:24.022Z,16.83
2018-02-22T14:33:52.270Z,20.52
2018-02-22T14:36:19.737Z,15.23
2018-02-22T14:38:47.204Z,14.02
2018-02-22T14:41:14.678Z,27.92
2018-02-22T14:43:42.909Z,20.37
2018-02-22T14:46:10.389Z,13.75
2018-02-22T14:48:37.855Z,10.63
2018-02-22T14:51:05.325Z,12.75
2018-02-22T14:53:33.631Z,15.38
2018-02-22T14:56:01.115Z,10.48
2018-02-22T14:58:28.582Z,14.35
2018-02-22T15:01:01.721Z,15.05
2018-02-22T15:03:29.217Z,16.30
2018-02-22T15:05:56.721Z,16.50
2018-02-22T15:08:24.957Z,11.02
2018-02-22T15:10:52.419Z,11.27
2018-02-22T15:13:19.898Z,13.57
2018-02-22T15:15:48.168Z,11.82
2018-02-22T15:18:15.645Z,17.05
2018-02-22T15:20:43.895Z,11.95
2018-02-22T15:23:11.351Z,12.60
2018-02-22T15:25:38.959Z,18.85
2018-02-22T15:28:06.433Z,18.58
2018-02-22T15:30:33.889Z,13.90
2018-02-22T15:33:01.536Z,16.98
2018-02-22T15:35:28.999Z,8.68
2018-02-22T15:37:56.473Z,9.25
2018-02-22T15:40:23.943Z,14.93
2018-02-22T15:42:51.491Z,11.90
2018-02-22T15:45:18.952Z,9.45
2018-02-22T15:47:46.442Z,6.87
2018-02-22T15:50:14.688Z,9.10
2018-02-22T15:52:42.160Z,12.13
2018-02-22T15:55:09.638Z,10.52
2018-02-22T15:57:37.873Z,10.52
2018-02-22T16:00:05.866Z,8.32
2018-02-22T16:02:34.093Z,11.25
2018-02-22T16:05:01.568Z,11.75
2018-02-22T16:07:29.050Z,10.70
2018-02-22T16:09:56.519Z,9.77
2018-02-22T16:12:24.753Z,7.07
2018-02-22T16:14:52.235Z,11.18
2018-02-22T16:17:19.694Z,12.37
2018-02-22T16:19:47.205Z,11.88
2018-02-22T16:22:14.674Z,13.23
2018-02-22T16:24:42.145Z,11.00
2018-02-22T16:27:09.760Z,18.25
2018-02-22T16:29:38.463Z,14.87
2018-02-22T16:32:05.935Z,16.12
2018-02-22T16:34:33.414Z,16.45
2018-02-22T16:37:00.899Z,18.75
2018-02-22T16:39:29.172Z,15.55
2018-02-22T16:41:56.602Z,13.05
2018-02-22T16:44:24.874Z,19.52
2018-02-22T16:46:52.580Z,18.00
2018-02-22T16:49:20.048Z,16.23
2018-02-22T16:51:47.523Z,18.65
2018-02-22T16:54:14.999Z,27.42
2018-02-22T16:56:42.474Z,12.65
2018-02-22T16:59:09.942Z,16.02
2018-02-22T17:01:37.610Z,17.48
2018-02-22T17:04:06.757Z,19.00
2018-02-22T17:06:34.224Z,16.37
2018-02-22T17:09:01.685Z,14.20
2018-02-22T17:11:29.158Z,17.70
2018-02-22T17:13:56.631Z,18.40
2018-02-22T17:16:24.881Z,22.58
2018-02-22T17:18:53.866Z,15.52
2018-02-22T17:21:21.334Z,16.83
2018-02-22T17:23:48.798Z,17.20
2018-02-22T17:26:21.895Z,18.23
2018-02-22T17:28:55.122Z,11.12
2018-02-22T17:31:28.361Z,18.52
2018-02-22T17:33:56.877Z,17.85
2018-02-22T17:39:36.530Z,20.40
2018-02-22T17:42:04.756Z,15.23
2018-02-22T17:44:32.219Z,22.48
2018-02-22T17:47:00.572Z,17.52
2018-02-22T17:49:28.050Z,21.77
2018-02-22T17:51:55.527Z,19.40
2018-02-22T17:54:22.990Z,19.17
2018-02-22T17:56:50.486Z,18.67
2018-02-22T17:59:17.946Z,20.00
2018-02-22T18:01:45.411Z,16.92
2018-02-22T18:04:12.882Z,18.48
2018-02-22T18:06:40.342Z,16.80
2018-02-22T18:09:07.829Z,20.48
2018-02-22T18:11:35.307Z,22.80
2018-02-22T18:14:03.560Z,23.85
2018-02-22T18:16:31.058Z,16.90
2018-02-22T18:18:58.534Z,17.15
2018-02-22T18:21:26.050Z,20.42
2018-02-22T18:23:54.293Z,21.45
2018-02-22T18:26:21.770Z,16.15
2018-02-22T18:28:49.248Z,16.50
2018-02-22T18:31:17.476Z,19.15
2018-02-22T18:33:44.950Z,16.27
2018-02-22T18:36:12.421Z,25.45
2018-02-22T18:38:45.738Z,23.73
2018-02-22T18:41:16.952Z,19.40
2018-02-22T18:43:44.423Z,25.40
2018-02-22T18:46:12.653Z,15.40
2018-02-22T18:48:40.139Z,24.37
2018-02-22T18:51:07.613Z,13.50
2018-02-22T18:53:35.869Z,15.15
2018-02-22T18:56:03.341Z,13.23
2018-02-22T18:58:31.570Z,11.25
2018-02-22T19:00:59.070Z,10.75
2018-02-22T19:03:26.543Z,12.82
2018-02-22T19:05:54.779Z,16.70
2018-02-22T19:08:22.253Z,12.95
2018-02-22T19:10:49.712Z,9.73
2018-02-22T19:13:17.277Z,12.13
2018-02-22T19:15:45.596Z,10.05
2018-02-22T19:18:13.081Z,10.88
2018-02-22T19:20:40.565Z,10.23
2018-02-22T19:23:08.026Z,8.90
2018-02-22T19:25:35.506Z,12.52
2018-02-22T19:28:02.985Z,10.60
2018-02-22T19:30:30.476Z,12.60
2018-02-22T19:32:57.942Z,20.48
2018-02-22T19:35:25.419Z,8.90
2018-02-22T19:37:52.890Z,12.50
2018-02-22T19:40:20.357Z,10.98
2018-02-22T19:42:47.855Z,11.75
2018-02-22T19:45:15.322Z,13.48
2018-02-22T19:47:42.802Z,13.77
2018-02-22T19:50:11.025Z,17.12
2018-02-22T19:52:38.477Z,8.20
2018-02-22T19:55:05.938Z,9.43
2018-02-22T19:57:33.421Z,9.10
2018-02-22T20:00:01.654Z,7.10
2018-02-22T20:02:29.132Z,11.30
2018-02-22T20:04:56.598Z,12.32
2018-02-22T20:07:24.069Z,9.35
2018-02-22T20:09:52.008Z,10.70
2018-02-22T20:12:19.476Z,12.05
2018-02-22T20:14:46.937Z,9.40
2018-02-22T20:17:14.413Z,15.05
2018-02-22T20:19:42.642Z,8.00
2018-02-22T20:22:10.121Z,12.40
2018-02-22T20:24:37.616Z,10.50
2018-02-22T20:27:05.873Z,6.25
2018-02-22T20:29:34.205Z,8.70
2018-02-22T20:32:01.663Z,13.65
2018-02-22T20:34:29.138Z,12.65
2018-02-22T20:36:56.600Z,11.65
2018-02-22T20:39:24.085Z,12.77
2018-02-22T20:41:53.074Z,15.07
2018-02-22T20:44:20.552Z,17.25
2018-02-22T20:46:48.786Z,13.25
2018-02-22T20:49:16.254Z,13.10
2018-02-22T20:51:44.498Z,12.73
2018-02-22T20:54:11.962Z,13.43
2018-02-22T20:56:39.437Z,22.70
2018-02-22T20:59:06.916Z,14.90
2018-02-22T21:01:34.373Z,16.17
2018-02-22T21:04:02.622Z,16.73
2018-02-22T21:06:30.119Z,12.85
2018-02-22T21:08:58.361Z,21.55
2018-02-22T21:11:25.833Z,14.00
2018-02-22T21:13:53.305Z,12.65
2018-02-22T21:16:21.554Z,13.43
2018-02-22T21:18:49.020Z,11.63
2018-02-22T21:21:17.388Z,24.00
2018-02-22T21:23:44.865Z,21.40
2018-02-22T21:26:13.103Z,21.02
2018-02-22T21:28:40.577Z,30.37
2018-02-22T21:31:08.814Z,16.58
2018-02-22T21:33:36.286Z,16.12
2018-02-22T21:36:03.754Z,15.77
2018-02-22T21:38:31.223Z,22.92
2018-02-22T21:40:58.689Z,16.48
2018-02-22T21:43:26.154Z,17.00
2018-02-22T21:45:53.786Z,15.85
2018-02-22T21:48:21.266Z,14.93
2018-02-22T21:50:49.501Z,20.90
2018-02-22T21:53:16.973Z,16.95
2018-02-22T21:55:44.438Z,19.35
2018-02-22T21:58:11.919Z,21.00
2018-02-22T22:00:40.157Z,23.45
2018-02-22T22:03:07.639Z,21.85
2018-02-22T22:05:35.883Z,26.55
2018-02-22T22:08:03.361Z,23.77
2018-02-22T22:10:30.874Z,25.35
2018-02-22T22:12:59.070Z,21.37
2018-02-22T22:15:26.542Z,20.00
2018-02-22T22:17:54.010Z,17.60
2018-02-22T22:20:21.468Z,21.60
2018-02-22T22:22:48.978Z,20.05
2018-02-22T22:25:16.433Z,20.62
2018-02-22T22:27:43.918Z,26.70
2018-02-22T22:30:11.405Z,19.33
2018-02-22T22:32:39.645Z,31.27
2018-02-22T22:35:07.162Z,22.20
2018-02-22T22:37:35.559Z,22.58
2018-02-22T22:40:03.031Z,22.35
2018-02-22T22:42:30.578Z,19.17
2018-02-22T22:44:58.037Z,20.55
2018-02-22T22:47:25.516Z,18.30
2018-02-22T22:49:52.990Z,22.92
2018-02-22T22:52:20.479Z,21.42
2018-02-22T22:54:48.721Z,20.58
2018-02-22T22:57:16.191Z,20.58
2018-02-22T22:59:43.667Z,21.42
2018-02-22T23:02:11.968Z,17.23
2018-02-22T23:04:39.431Z,24.05
2018-02-22T23:07:06.911Z,15.95
2018-02-22T23:09:34.438Z,19.90
2018-02-22T23:12:01.961Z,13.55
2018-02-22T23:14:30.205Z,18.10
2018-02-22T23:16:57.699Z,15.27
2018-02-22T23:19:25.928Z,11.70
2018-02-22T23:21:53.437Z,17.00
2018-02-22T23:24:21.674Z,11.80
2018-02-22T23:26:49.136Z,15.82
2018-02-22T23:29:16.696Z,13.50
2018-02-22T23:31:44.160Z,13.25
2018-02-22T23:34:11.627Z,18.42
2018-02-22T23:36:39.884Z,16.25
2018-02-22T23:39:07.354Z,11.12
2018-02-22T23:41:40.279Z,16.40
2018-02-22T23:44:07.758Z,17.70
2018-02-22T23:46:35.222Z,15.68
2018-02-22T23:49:02.690Z,16.48
2018-02-22T23:51:30.159Z,18.35
2018-02-22T23:53:57.636Z,19.55
2018-02-22T23:56:25.902Z,20.65
2018-02-22T23:58:53.358Z,14.43
